sensor_id;sensor_type;location;lat;lon;timestamp;temperature;humidity
8832;DHT22;4452;50.756;4.472;2022-10-26T00:01:08;12.90;99.90
8832;DHT22;4452;50.756;4.472;2022-10-26T00:03:35;12.90;99.90
8832;DHT22;4452;50.756;4.472;2022-10-26T00:06:07;13.00;99.90
8832;DHT22;4452;50.756;4.472;2022-10-26T00:08:33;13.00;99.90
8832;DHT22;4452;50.756;4.472;2022-10-26T00:10:59;13.00;99.90
8832;DHT22;4452;50.756;4.472;2022-10-26T00:13:25;13.00;99.90
8832;DHT22;4452;50.756;4.472;2022-10-26T00:15:50;13.00;99.90
8832;DHT22;4452;50.756;4.472;2022-10-26T00:18:16;13.10;99.90
8832;DHT22;4452;50.756;4.472;2022-10-26T00:20:41;13.00;99.90
8832;DHT22;4452;50.756;4.472;2022-10-26T00:23:07;13.10;99.90
8832;DHT22;4452;50.756;4.472;2022-10-26T00:25:33;13.10;99.90
8832;DHT22;4452;50.756;4.472;2022-10-26T00:27:59;13.10;99.90
8832;DHT22;4452;50.756;4.472;2022-10-26T00:30:24;13.20;99.90
8832;DHT22;4452;50.756;4.472;2022-10-26T00:32:50;13.20;99.90
8832;DHT22;4452;50.756;4.472;2022-10-26T00:35:16;13.10;99.90
8832;DHT22;4452;50.756;4.472;2022-10-26T00:37:42;13.10;99.90
8832;DHT22;4452;50.756;4.472;2022-10-26T00:40:08;13.10;99.90
8832;DHT22;4452;50.756;4.472;2022-10-26T00:42:34;13.10;99.90
8832;DHT22;4452;50.756;4.472;2022-10-26T00:45:14;13.10;99.90
8832;DHT22;4452;50.756;4.472;2022-10-26T00:47:47;13.10;99.90
8832;DHT22;4452;50.756;4.472;2022-10-26T00:50:49;13.10;99.90
8832;DHT22;4452;50.756;4.472;2022-10-26T00:53:17;13.10;99.90
8832;DHT22;4452;50.756;4.472;2022-10-26T00:55:47;13.20;99.90
8832;DHT22;4452;50.756;4.472;2022-10-26T00:58:13;13.10;99.90
8832;DHT22;4452;50.756;4.472;2022-10-26T01:00:40;13.20;99.90
8832;DHT22;4452;50.756;4.472;2022-10-26T01:03:08;13.20;99.90
8832;DHT22;4452;50.756;4.472;2022-10-26T01:05:36;13.20;99.90
8832;DHT22;4452;50.756;4.472;2022-10-26T01:08:03;13.20;99.90
8832;DHT22;4452;50.756;4.472;2022-10-26T01:10:28;13.30;99.90
8832;DHT22;4452;50.756;4.472;2022-10-26T01:12:56;13.30;99.90
8832;DHT22;4452;50.756;4.472;2022-10-26T01:15:32;13.30;99.90
8832;DHT22;4452;50.756;4.472;2022-10-26T01:26:14;13.30;99.90
8832;DHT22;4452;50.756;4.472;2022-10-26T01:31:27;13.30;99.90
8832;DHT22;4452;50.756;4.472;2022-10-26T01:34:01;13.40;99.90
8832;DHT22;4452;50.756;4.472;2022-10-26T01:36:35;13.40;99.90
8832;DHT22;4452;50.756;4.472;2022-10-26T01:39:17;13.50;99.90
8832;DHT22;4452;50.756;4.472;2022-10-26T01:41:53;13.50;99.90
8832;DHT22;4452;50.756;4.472;2022-10-26T01:44:20;13.50;99.90
8832;DHT22;4452;50.756;4.472;2022-10-26T01:46:49;13.60;99.90
8832;DHT22;4452;50.756;4.472;2022-10-26T01:49:20;13.70;99.90
8832;DHT22;4452;50.756;4.472;2022-10-26T01:51:48;13.80;99.90
8832;DHT22;4452;50.756;4.472;2022-10-26T01:54:14;13.80;99.90
8832;DHT22;4452;50.756;4.472;2022-10-26T01:56:42;13.90;99.90
8832;DHT22;4452;50.756;4.472;2022-10-26T02:01:58;14.00;99.90
8832;DHT22;4452;50.756;4.472;2022-10-26T02:07:54;14.10;99.90
8832;DHT22;4452;50.756;4.472;2022-10-26T02:20:48;14.30;99.90
8832;DHT22;4452;50.756;4.472;2022-10-26T02:23:16;14.30;99.90
8832;DHT22;4452;50.756;4.472;2022-10-26T02:25:53;14.30;99.90
8832;DHT22;4452;50.756;4.472;2022-10-26T02:28:24;14.20;99.90
8832;DHT22;4452;50.756;4.472;2022-10-26T02:30:54;14.30;99.90
8832;DHT22;4452;50.756;4.472;2022-10-26T02:33:21;14.40;99.90
8832;DHT22;4452;50.756;4.472;2022-10-26T02:35:51;14.40;99.90
8832;DHT22;4452;50.756;4.472;2022-10-26T02:38:18;14.40;99.90
8832;DHT22;4452;50.756;4.472;2022-10-26T02:40:48;14.40;99.90
8832;DHT22;4452;50.756;4.472;2022-10-26T02:43:16;14.40;99.90
8832;DHT22;4452;50.756;4.472;2022-10-26T02:45:50;14.40;99.90
8832;DHT22;4452;50.756;4.472;2022-10-26T02:48:17;14.40;99.90
8832;DHT22;4452;50.756;4.472;2022-10-26T02:50:56;14.40;99.90
8832;DHT22;4452;50.756;4.472;2022-10-26T02:53:38;14.40;99.90
8832;DHT22;4452;50.756;4.472;2022-10-26T02:56:11;14.40;99.90
8832;DHT22;4452;50.756;4.472;2022-10-26T02:58:44;14.40;99.90
8832;DHT22;4452;50.756;4.472;2022-10-26T03:01:12;14.40;99.90
8832;DHT22;4452;50.756;4.472;2022-10-26T03:03:38;14.40;99.90
8832;DHT22;4452;50.756;4.472;2022-10-26T03:06:04;14.40;99.90
8832;DHT22;4452;50.756;4.472;2022-10-26T03:08:29;14.40;99.90
8832;DHT22;4452;50.756;4.472;2022-10-26T03:10:55;14.40;99.90
8832;DHT22;4452;50.756;4.472;2022-10-26T03:13:21;14.40;99.90
8832;DHT22;4452;50.756;4.472;2022-10-26T03:15:46;14.40;99.90
8832;DHT22;4452;50.756;4.472;2022-10-26T03:18:12;14.40;99.90
8832;DHT22;4452;50.756;4.472;2022-10-26T03:20:37;14.40;99.90
8832;DHT22;4452;50.756;4.472;2022-10-26T03:23:03;14.40;99.90
8832;DHT22;4452;50.756;4.472;2022-10-26T03:25:29;14.40;99.90
8832;DHT22;4452;50.756;4.472;2022-10-26T03:28:02;14.40;99.90
8832;DHT22;4452;50.756;4.472;2022-10-26T03:30:29;14.40;99.90
8832;DHT22;4452;50.756;4.472;2022-10-26T03:32:55;14.40;99.90
8832;DHT22;4452;50.756;4.472;2022-10-26T03:35:21;14.50;99.90
8832;DHT22;4452;50.756;4.472;2022-10-26T03:37:46;14.50;99.90
8832;DHT22;4452;50.756;4.472;2022-10-26T03:40:12;14.60;99.90
8832;DHT22;4452;50.756;4.472;2022-10-26T03:42:38;14.60;99.90
8832;DHT22;4452;50.756;4.472;2022-10-26T03:45:05;14.60;99.90
8832;DHT22;4452;50.756;4.472;2022-10-26T03:47:31;14.60;99.90
8832;DHT22;4452;50.756;4.472;2022-10-26T03:49:57;14.70;99.90
8832;DHT22;4452;50.756;4.472;2022-10-26T03:52:23;14.70;99.90
8832;DHT22;4452;50.756;4.472;2022-10-26T03:54:50;14.60;99.90
8832;DHT22;4452;50.756;4.472;2022-10-26T03:57:16;14.50;99.90
8832;DHT22;4452;50.756;4.472;2022-10-26T03:59:41;14.40;99.90
8832;DHT22;4452;50.756;4.472;2022-10-26T04:02:07;14.30;99.90
8832;DHT22;4452;50.756;4.472;2022-10-26T04:04:33;14.20;99.90
8832;DHT22;4452;50.756;4.472;2022-10-26T04:06:58;14.20;99.90
8832;DHT22;4452;50.756;4.472;2022-10-26T04:09:24;14.20;99.90
8832;DHT22;4452;50.756;4.472;2022-10-26T04:11:49;14.10;99.90
8832;DHT22;4452;50.756;4.472;2022-10-26T04:14:15;14.10;99.90
8832;DHT22;4452;50.756;4.472;2022-10-26T04:16:41;14.10;99.90
8832;DHT22;4452;50.756;4.472;2022-10-26T04:19:06;14.10;99.90
8832;DHT22;4452;50.756;4.472;2022-10-26T04:21:32;14.00;99.90
8832;DHT22;4452;50.756;4.472;2022-10-26T04:24:00;14.00;99.90
8832;DHT22;4452;50.756;4.472;2022-10-26T04:26:26;14.00;99.90
8832;DHT22;4452;50.756;4.472;2022-10-26T04:28:51;14.00;99.90
8832;DHT22;4452;50.756;4.472;2022-10-26T04:31:17;14.00;99.90
8832;DHT22;4452;50.756;4.472;2022-10-26T04:33:43;14.00;99.90
8832;DHT22;4452;50.756;4.472;2022-10-26T04:36:09;14.00;99.90
8832;DHT22;4452;50.756;4.472;2022-10-26T04:38:34;14.00;99.90
8832;DHT22;4452;50.756;4.472;2022-10-26T04:41:00;14.00;99.90
8832;DHT22;4452;50.756;4.472;2022-10-26T04:43:26;14.10;99.90
8832;DHT22;4452;50.756;4.472;2022-10-26T04:45:55;14.00;99.90
8832;DHT22;4452;50.756;4.472;2022-10-26T04:48:21;14.10;99.90
8832;DHT22;4452;50.756;4.472;2022-10-26T04:50:47;14.10;99.90
8832;DHT22;4452;50.756;4.472;2022-10-26T04:53:13;14.10;99.90
8832;DHT22;4452;50.756;4.472;2022-10-26T04:55:38;14.10;99.90
8832;DHT22;4452;50.756;4.472;2022-10-26T04:58:04;14.00;99.90
8832;DHT22;4452;50.756;4.472;2022-10-26T05:00:31;14.10;99.90
8832;DHT22;4452;50.756;4.472;2022-10-26T05:03:04;14.00;99.90
8832;DHT22;4452;50.756;4.472;2022-10-26T05:05:32;14.10;99.90
8832;DHT22;4452;50.756;4.472;2022-10-26T05:07:57;14.00;99.90
8832;DHT22;4452;50.756;4.472;2022-10-26T05:10:24;14.00;99.90
8832;DHT22;4452;50.756;4.472;2022-10-26T05:12:51;14.00;99.90
8832;DHT22;4452;50.756;4.472;2022-10-26T05:15:17;14.00;99.90
8832;DHT22;4452;50.756;4.472;2022-10-26T05:17:43;14.00;99.90
8832;DHT22;4452;50.756;4.472;2022-10-26T05:20:09;14.00;99.90
8832;DHT22;4452;50.756;4.472;2022-10-26T05:22:38;14.00;99.90
8832;DHT22;4452;50.756;4.472;2022-10-26T05:25:04;14.00;99.90
8832;DHT22;4452;50.756;4.472;2022-10-26T05:27:30;14.00;99.90
8832;DHT22;4452;50.756;4.472;2022-10-26T05:29:56;13.90;99.90
8832;DHT22;4452;50.756;4.472;2022-10-26T05:32:21;13.90;99.90
8832;DHT22;4452;50.756;4.472;2022-10-26T05:34:47;13.90;99.90
8832;DHT22;4452;50.756;4.472;2022-10-26T05:37:13;13.90;99.90
8832;DHT22;4452;50.756;4.472;2022-10-26T05:39:38;13.80;99.90
8832;DHT22;4452;50.756;4.472;2022-10-26T05:42:04;13.80;99.90
8832;DHT22;4452;50.756;4.472;2022-10-26T05:44:29;13.70;99.90
8832;DHT22;4452;50.756;4.472;2022-10-26T05:46:55;13.80;99.90
8832;DHT22;4452;50.756;4.472;2022-10-26T05:49:21;13.70;99.90
8832;DHT22;4452;50.756;4.472;2022-10-26T05:51:46;13.70;99.90
8832;DHT22;4452;50.756;4.472;2022-10-26T05:54:12;13.70;99.90
8832;DHT22;4452;50.756;4.472;2022-10-26T05:56:39;13.70;99.90
8832;DHT22;4452;50.756;4.472;2022-10-26T05:59:15;13.70;99.90
8832;DHT22;4452;50.756;4.472;2022-10-26T06:06:53;13.70;99.90
8832;DHT22;4452;50.756;4.472;2022-10-26T06:09:20;13.70;99.90
8832;DHT22;4452;50.756;4.472;2022-10-26T06:11:46;13.70;99.90
8832;DHT22;4452;50.756;4.472;2022-10-26T06:14:12;13.70;99.90
8832;DHT22;4452;50.756;4.472;2022-10-26T06:27:51;13.70;99.90
8832;DHT22;4452;50.756;4.472;2022-10-26T06:30:21;13.70;99.90
8832;DHT22;4452;50.756;4.472;2022-10-26T06:32:48;13.70;99.90
8832;DHT22;4452;50.756;4.472;2022-10-26T06:35:35;13.70;99.90
8832;DHT22;4452;50.756;4.472;2022-10-26T06:38:07;13.80;99.90
8832;DHT22;4452;50.756;4.472;2022-10-26T06:40:36;13.70;99.90
8832;DHT22;4452;50.756;4.472;2022-10-26T06:43:12;13.80;99.90
8832;DHT22;4452;50.756;4.472;2022-10-26T06:45:43;13.90;99.90
8832;DHT22;4452;50.756;4.472;2022-10-26T06:48:15;13.80;99.90
8832;DHT22;4452;50.756;4.472;2022-10-26T06:50:53;13.80;99.90
8832;DHT22;4452;50.756;4.472;2022-10-26T06:53:42;13.90;99.90
8832;DHT22;4452;50.756;4.472;2022-10-26T06:56:10;14.00;99.90
8832;DHT22;4452;50.756;4.472;2022-10-26T06:58:36;13.90;99.90
8832;DHT22;4452;50.756;4.472;2022-10-26T07:01:04;14.00;99.90
8832;DHT22;4452;50.756;4.472;2022-10-26T07:03:29;14.00;99.90
8832;DHT22;4452;50.756;4.472;2022-10-26T07:05:55;14.00;99.90
8832;DHT22;4452;50.756;4.472;2022-10-26T07:08:21;14.10;99.90
8832;DHT22;4452;50.756;4.472;2022-10-26T07:10:46;14.20;99.90
8832;DHT22;4452;50.756;4.472;2022-10-26T07:13:12;14.20;99.90
8832;DHT22;4452;50.756;4.472;2022-10-26T07:15:38;14.20;99.90
8832;DHT22;4452;50.756;4.472;2022-10-26T07:18:05;14.20;99.90
8832;DHT22;4452;50.756;4.472;2022-10-26T07:20:35;14.20;99.90
8832;DHT22;4452;50.756;4.472;2022-10-26T07:23:01;14.30;99.90
8832;DHT22;4452;50.756;4.472;2022-10-26T07:25:28;14.30;99.90
8832;DHT22;4452;50.756;4.472;2022-10-26T07:28:00;14.40;99.90
8832;DHT22;4452;50.756;4.472;2022-10-26T07:30:31;14.40;99.90
8832;DHT22;4452;50.756;4.472;2022-10-26T07:33:04;14.50;99.90
8832;DHT22;4452;50.756;4.472;2022-10-26T07:35:33;14.60;99.90
8832;DHT22;4452;50.756;4.472;2022-10-26T07:38:02;14.70;99.90
8832;DHT22;4452;50.756;4.472;2022-10-26T07:40:30;14.80;99.90
8832;DHT22;4452;50.756;4.472;2022-10-26T07:42:57;14.80;99.90
8832;DHT22;4452;50.756;4.472;2022-10-26T07:45:23;14.90;99.90
8832;DHT22;4452;50.756;4.472;2022-10-26T07:47:49;15.10;99.90
8832;DHT22;4452;50.756;4.472;2022-10-26T07:50:15;15.20;99.90
8832;DHT22;4452;50.756;4.472;2022-10-26T07:52:40;15.30;99.90
8832;DHT22;4452;50.756;4.472;2022-10-26T07:55:10;15.40;99.90
8832;DHT22;4452;50.756;4.472;2022-10-26T07:57:36;15.50;99.90
8832;DHT22;4452;50.756;4.472;2022-10-26T08:00:03;15.60;99.90
8832;DHT22;4452;50.756;4.472;2022-10-26T08:02:29;15.60;99.90
8832;DHT22;4452;50.756;4.472;2022-10-26T08:04:57;15.60;99.90
8832;DHT22;4452;50.756;4.472;2022-10-26T08:07:23;15.70;99.90
8832;DHT22;4452;50.756;4.472;2022-10-26T08:09:50;15.80;99.90
8832;DHT22;4452;50.756;4.472;2022-10-26T08:12:16;15.90;99.90
8832;DHT22;4452;50.756;4.472;2022-10-26T08:14:42;16.00;99.90
8832;DHT22;4452;50.756;4.472;2022-10-26T08:17:08;16.10;99.90
8832;DHT22;4452;50.756;4.472;2022-10-26T08:19:34;16.20;99.90
8832;DHT22;4452;50.756;4.472;2022-10-26T08:22:00;16.30;99.90
8832;DHT22;4452;50.756;4.472;2022-10-26T08:24:25;16.40;99.90
8832;DHT22;4452;50.756;4.472;2022-10-26T08:26:51;16.40;99.90
8832;DHT22;4452;50.756;4.472;2022-10-26T08:29:16;16.50;99.90
8832;DHT22;4452;50.756;4.472;2022-10-26T08:31:42;16.60;99.90
8832;DHT22;4452;50.756;4.472;2022-10-26T08:34:08;16.70;99.90
8832;DHT22;4452;50.756;4.472;2022-10-26T08:36:34;16.80;99.90
8832;DHT22;4452;50.756;4.472;2022-10-26T08:39:00;16.90;99.90
8832;DHT22;4452;50.756;4.472;2022-10-26T08:41:36;16.90;99.90
8832;DHT22;4452;50.756;4.472;2022-10-26T08:46:41;17.10;99.90
8832;DHT22;4452;50.756;4.472;2022-10-26T08:49:29;17.10;99.90
8832;DHT22;4452;50.756;4.472;2022-10-26T08:52:00;17.30;99.90
8832;DHT22;4452;50.756;4.472;2022-10-26T08:54:40;17.30;99.90
8832;DHT22;4452;50.756;4.472;2022-10-26T08:57:33;17.40;99.90
8832;DHT22;4452;50.756;4.472;2022-10-26T09:00:09;17.50;99.90
8832;DHT22;4452;50.756;4.472;2022-10-26T09:02:36;17.50;99.90
8832;DHT22;4452;50.756;4.472;2022-10-26T09:05:02;17.60;99.90
8832;DHT22;4452;50.756;4.472;2022-10-26T09:10:22;17.70;99.90
8832;DHT22;4452;50.756;4.472;2022-10-26T09:16:20;18.00;99.90
8832;DHT22;4452;50.756;4.472;2022-10-26T09:19:17;18.00;99.90
8832;DHT22;4452;50.756;4.472;2022-10-26T09:22:18;18.10;99.90
8832;DHT22;4452;50.756;4.472;2022-10-26T09:24:54;18.00;99.90
8832;DHT22;4452;50.756;4.472;2022-10-26T09:27:29;18.00;99.90
8832;DHT22;4452;50.756;4.472;2022-10-26T09:30:02;18.10;99.90
8832;DHT22;4452;50.756;4.472;2022-10-26T09:32:35;18.10;99.90
8832;DHT22;4452;50.756;4.472;2022-10-26T09:35:36;17.90;99.90
8832;DHT22;4452;50.756;4.472;2022-10-26T09:38:12;17.90;99.90
8832;DHT22;4452;50.756;4.472;2022-10-26T09:40:47;17.90;99.90
8832;DHT22;4452;50.756;4.472;2022-10-26T09:43:19;18.00;99.90
8832;DHT22;4452;50.756;4.472;2022-10-26T09:45:50;18.00;99.90
8832;DHT22;4452;50.756;4.472;2022-10-26T09:48:35;18.10;99.90
8832;DHT22;4452;50.756;4.472;2022-10-26T09:51:03;18.10;99.90
8832;DHT22;4452;50.756;4.472;2022-10-26T09:53:30;18.00;99.90
8832;DHT22;4452;50.756;4.472;2022-10-26T09:56:08;18.00;99.90
8832;DHT22;4452;50.756;4.472;2022-10-26T09:58:59;18.00;99.90
8832;DHT22;4452;50.756;4.472;2022-10-26T10:01:27;18.10;99.90
8832;DHT22;4452;50.756;4.472;2022-10-26T10:06:39;18.30;99.90
8832;DHT22;4452;50.756;4.472;2022-10-26T10:09:13;18.40;99.90
8832;DHT22;4452;50.756;4.472;2022-10-26T10:14:08;18.50;99.90
8832;DHT22;4452;50.756;4.472;2022-10-26T10:16:34;18.70;99.90
8832;DHT22;4452;50.756;4.472;2022-10-26T10:19:00;18.60;99.90
8832;DHT22;4452;50.756;4.472;2022-10-26T10:21:43;18.60;99.90
8832;DHT22;4452;50.756;4.472;2022-10-26T10:24:29;18.70;99.90
8832;DHT22;4452;50.756;4.472;2022-10-26T10:29:43;18.70;99.90
8832;DHT22;4452;50.756;4.472;2022-10-26T10:32:17;18.60;99.90
8832;DHT22;4452;50.756;4.472;2022-10-26T10:34:48;18.70;99.90
8832;DHT22;4452;50.756;4.472;2022-10-26T10:37:36;18.70;99.90
8832;DHT22;4452;50.756;4.472;2022-10-26T10:42:40;18.80;99.90
8832;DHT22;4452;50.756;4.472;2022-10-26T10:45:12;18.80;99.90
8832;DHT22;4452;50.756;4.472;2022-10-26T10:48:12;18.80;99.90
8832;DHT22;4452;50.756;4.472;2022-10-26T10:51:04;18.80;99.90
8832;DHT22;4452;50.756;4.472;2022-10-26T10:56:37;18.90;99.90
8832;DHT22;4452;50.756;4.472;2022-10-26T11:07:25;18.80;99.90
8832;DHT22;4452;50.756;4.472;2022-10-26T11:09:52;18.90;99.90
8832;DHT22;4452;50.756;4.472;2022-10-26T11:12:41;18.90;99.90
8832;DHT22;4452;50.756;4.472;2022-10-26T11:15:15;18.90;99.90
8832;DHT22;4452;50.756;4.472;2022-10-26T11:17:51;19.00;99.90
8832;DHT22;4452;50.756;4.472;2022-10-26T11:20:22;19.00;99.90
8832;DHT22;4452;50.756;4.472;2022-10-26T11:25:25;19.00;99.90
8832;DHT22;4452;50.756;4.472;2022-10-26T11:27:56;19.00;99.90
8832;DHT22;4452;50.756;4.472;2022-10-26T11:30:24;19.00;99.90
8832;DHT22;4452;50.756;4.472;2022-10-26T11:33:08;19.10;99.90
8832;DHT22;4452;50.756;4.472;2022-10-26T11:35:50;19.10;99.90
8832;DHT22;4452;50.756;4.472;2022-10-26T11:38:37;19.10;99.90
8832;DHT22;4452;50.756;4.472;2022-10-26T11:44:32;19.30;99.90
8832;DHT22;4452;50.756;4.472;2022-10-26T11:50:02;19.20;99.90
8832;DHT22;4452;50.756;4.472;2022-10-26T11:52:38;19.40;99.90
8832;DHT22;4452;50.756;4.472;2022-10-26T11:55:08;19.30;99.90
8832;DHT22;4452;50.756;4.472;2022-10-26T11:57:36;19.30;99.90
8832;DHT22;4452;50.756;4.472;2022-10-26T12:00:07;19.20;99.90
8832;DHT22;4452;50.756;4.472;2022-10-26T12:02:40;19.20;99.90
8832;DHT22;4452;50.756;4.472;2022-10-26T12:05:21;19.20;99.90
8832;DHT22;4452;50.756;4.472;2022-10-26T12:07:51;19.30;99.90
8832;DHT22;4452;50.756;4.472;2022-10-26T12:10:27;19.50;99.90
8832;DHT22;4452;50.756;4.472;2022-10-26T12:13:14;19.50;99.90
8832;DHT22;4452;50.756;4.472;2022-10-26T12:15:48;19.50;99.90
8832;DHT22;4452;50.756;4.472;2022-10-26T12:18:31;19.60;99.90
8832;DHT22;4452;50.756;4.472;2022-10-26T12:21:05;19.60;99.90
8832;DHT22;4452;50.756;4.472;2022-10-26T12:23:56;19.60;99.90
8832;DHT22;4452;50.756;4.472;2022-10-26T12:34:04;19.60;99.90
8832;DHT22;4452;50.756;4.472;2022-10-26T12:37:10;19.70;99.90
8832;DHT22;4452;50.756;4.472;2022-10-26T12:44:37;19.70;99.90
8832;DHT22;4452;50.756;4.472;2022-10-26T12:52:53;19.80;99.90
8832;DHT22;4452;50.756;4.472;2022-10-26T13:00:48;19.90;99.90
8832;DHT22;4452;50.756;4.472;2022-10-26T13:09:34;20.00;99.90
8832;DHT22;4452;50.756;4.472;2022-10-26T13:12:01;20.10;99.90
8832;DHT22;4452;50.756;4.472;2022-10-26T13:16:58;20.20;99.90
8832;DHT22;4452;50.756;4.472;2022-10-26T13:19:31;20.30;99.90
8832;DHT22;4452;50.756;4.472;2022-10-26T13:21:58;20.30;99.90
8832;DHT22;4452;50.756;4.472;2022-10-26T13:24:27;20.40;99.90
8832;DHT22;4452;50.756;4.472;2022-10-26T13:32:25;20.50;99.90
8832;DHT22;4452;50.756;4.472;2022-10-26T13:34:51;20.40;99.90
8832;DHT22;4452;50.756;4.472;2022-10-26T13:37:23;20.50;99.90
8832;DHT22;4452;50.756;4.472;2022-10-26T13:39:50;20.50;99.90
8832;DHT22;4452;50.756;4.472;2022-10-26T13:42:25;20.60;99.90
8832;DHT22;4452;50.756;4.472;2022-10-26T13:47:40;20.60;99.90
8832;DHT22;4452;50.756;4.472;2022-10-26T13:50:11;20.70;99.90
8832;DHT22;4452;50.756;4.472;2022-10-26T13:52:42;20.70;99.90
8832;DHT22;4452;50.756;4.472;2022-10-26T13:55:20;20.80;99.90
8832;DHT22;4452;50.756;4.472;2022-10-26T14:00:31;21.00;99.90
8832;DHT22;4452;50.756;4.472;2022-10-26T14:02:57;20.90;99.90
8832;DHT22;4452;50.756;4.472;2022-10-26T14:05:23;21.00;99.90
8832;DHT22;4452;50.756;4.472;2022-10-26T14:07:55;20.90;99.90
8832;DHT22;4452;50.756;4.472;2022-10-26T14:10:37;20.70;99.90
8832;DHT22;4452;50.756;4.472;2022-10-26T14:13:08;20.60;99.90
8832;DHT22;4452;50.756;4.472;2022-10-26T14:15:37;20.30;99.90
8832;DHT22;4452;50.756;4.472;2022-10-26T14:18:18;20.20;99.90
8832;DHT22;4452;50.756;4.472;2022-10-26T14:21:12;20.20;99.90
8832;DHT22;4452;50.756;4.472;2022-10-26T14:24:17;20.10;99.90
8832;DHT22;4452;50.756;4.472;2022-10-26T14:26:39;20.30;99.90
8832;DHT22;4452;50.756;4.472;2022-10-26T14:29:20;20.40;99.90
8832;DHT22;4452;50.756;4.472;2022-10-26T14:31:47;20.20;99.90
8832;DHT22;4452;50.756;4.472;2022-10-26T14:34:17;20.20;99.90
8832;DHT22;4452;50.756;4.472;2022-10-26T14:41:44;20.00;99.90
8832;DHT22;4452;50.756;4.472;2022-10-26T14:44:16;19.90;99.90
8832;DHT22;4452;50.756;4.472;2022-10-26T14:46:44;19.90;99.90
8832;DHT22;4452;50.756;4.472;2022-10-26T14:49:20;19.90;99.90
8832;DHT22;4452;50.756;4.472;2022-10-26T14:51:47;19.90;99.90
8832;DHT22;4452;50.756;4.472;2022-10-26T14:54:22;19.90;99.90
8832;DHT22;4452;50.756;4.472;2022-10-26T14:56:48;19.90;99.90
8832;DHT22;4452;50.756;4.472;2022-10-26T14:59:26;20.30;99.90
8832;DHT22;4452;50.756;4.472;2022-10-26T15:02:14;20.70;99.90
8832;DHT22;4452;50.756;4.472;2022-10-26T15:04:59;20.80;99.90
8832;DHT22;4452;50.756;4.472;2022-10-26T15:07:34;20.90;99.90
8832;DHT22;4452;50.756;4.472;2022-10-26T15:10:01;20.90;99.90
8832;DHT22;4452;50.756;4.472;2022-10-26T15:12:36;21.00;99.90
8832;DHT22;4452;50.756;4.472;2022-10-26T15:17:49;22.00;99.90
8832;DHT22;4452;50.756;4.472;2022-10-26T15:20:18;21.70;99.90
8832;DHT22;4452;50.756;4.472;2022-10-26T15:25:21;21.40;99.90
8832;DHT22;4452;50.756;4.472;2022-10-26T15:27:48;21.30;99.90
8832;DHT22;4452;50.756;4.472;2022-10-26T15:30:26;20.90;99.90
8832;DHT22;4452;50.756;4.472;2022-10-26T15:32:53;20.90;99.90
8832;DHT22;4452;50.756;4.472;2022-10-26T15:37:49;21.80;99.90
8832;DHT22;4452;50.756;4.472;2022-10-26T15:40:15;21.80;99.90
8832;DHT22;4452;50.756;4.472;2022-10-26T15:42:42;21.60;99.90
8832;DHT22;4452;50.756;4.472;2022-10-26T15:45:16;21.50;99.90
8832;DHT22;4452;50.756;4.472;2022-10-26T15:47:43;21.30;99.90
8832;DHT22;4452;50.756;4.472;2022-10-26T15:50:14;20.90;99.90
8832;DHT22;4452;50.756;4.472;2022-10-26T15:52:40;20.60;99.90
8832;DHT22;4452;50.756;4.472;2022-10-26T15:55:06;20.20;99.90
8832;DHT22;4452;50.756;4.472;2022-10-26T15:57:32;19.80;99.90
8832;DHT22;4452;50.756;4.472;2022-10-26T15:59:57;19.70;99.90
8832;DHT22;4452;50.756;4.472;2022-10-26T16:02:23;19.50;99.90
8832;DHT22;4452;50.756;4.472;2022-10-26T16:04:48;19.40;99.90
8832;DHT22;4452;50.756;4.472;2022-10-26T16:07:14;19.20;99.90
8832;DHT22;4452;50.756;4.472;2022-10-26T16:09:41;19.10;99.90
8832;DHT22;4452;50.756;4.472;2022-10-26T16:12:12;19.10;99.90
8832;DHT22;4452;50.756;4.472;2022-10-26T16:14:38;19.00;99.90
8832;DHT22;4452;50.756;4.472;2022-10-26T16:17:05;18.80;99.90
8832;DHT22;4452;50.756;4.472;2022-10-26T16:19:31;18.80;99.90
8832;DHT22;4452;50.756;4.472;2022-10-26T16:21:58;18.70;99.90
8832;DHT22;4452;50.756;4.472;2022-10-26T16:24:24;18.60;99.90
8832;DHT22;4452;50.756;4.472;2022-10-26T16:26:51;18.60;99.90
8832;DHT22;4452;50.756;4.472;2022-10-26T16:29:17;18.50;99.90
8832;DHT22;4452;50.756;4.472;2022-10-26T16:31:44;18.40;99.90
8832;DHT22;4452;50.756;4.472;2022-10-26T16:34:10;18.30;99.90
8832;DHT22;4452;50.756;4.472;2022-10-26T16:36:35;18.30;99.90
8832;DHT22;4452;50.756;4.472;2022-10-26T16:39:03;18.20;99.90
8832;DHT22;4452;50.756;4.472;2022-10-26T16:41:29;18.30;99.90
8832;DHT22;4452;50.756;4.472;2022-10-26T16:43:56;18.20;99.90
8832;DHT22;4452;50.756;4.472;2022-10-26T16:46:24;18.20;99.90
8832;DHT22;4452;50.756;4.472;2022-10-26T16:48:52;18.20;99.90
8832;DHT22;4452;50.756;4.472;2022-10-26T16:51:22;18.20;99.90
8832;DHT22;4452;50.756;4.472;2022-10-26T16:53:54;18.20;99.90
8832;DHT22;4452;50.756;4.472;2022-10-26T16:56:28;18.10;99.90
8832;DHT22;4452;50.756;4.472;2022-10-26T16:58:56;18.10;99.90
8832;DHT22;4452;50.756;4.472;2022-10-26T17:01:23;18.10;99.90
8832;DHT22;4452;50.756;4.472;2022-10-26T17:03:50;18.10;99.90
8832;DHT22;4452;50.756;4.472;2022-10-26T17:06:16;18.00;99.90
8832;DHT22;4452;50.756;4.472;2022-10-26T17:08:42;18.00;99.90
8832;DHT22;4452;50.756;4.472;2022-10-26T17:11:17;18.00;99.90
8832;DHT22;4452;50.756;4.472;2022-10-26T17:13:43;17.90;99.90
8832;DHT22;4452;50.756;4.472;2022-10-26T17:16:15;17.90;99.90
8832;DHT22;4452;50.756;4.472;2022-10-26T17:18:42;17.90;99.90
8832;DHT22;4452;50.756;4.472;2022-10-26T17:21:10;17.70;99.90
8832;DHT22;4452;50.756;4.472;2022-10-26T17:23:36;17.70;99.90
8832;DHT22;4452;50.756;4.472;2022-10-26T17:26:03;17.70;99.90
8832;DHT22;4452;50.756;4.472;2022-10-26T17:28:30;17.60;99.90
8832;DHT22;4452;50.756;4.472;2022-10-26T17:31:11;17.60;99.90
8832;DHT22;4452;50.756;4.472;2022-10-26T17:33:39;17.50;99.90
8832;DHT22;4452;50.756;4.472;2022-10-26T17:36:07;17.30;99.90
8832;DHT22;4452;50.756;4.472;2022-10-26T17:38:35;17.30;99.90
8832;DHT22;4452;50.756;4.472;2022-10-26T17:41:02;17.20;99.90
8832;DHT22;4452;50.756;4.472;2022-10-26T17:43:32;17.10;99.90
8832;DHT22;4452;50.756;4.472;2022-10-26T17:45:59;17.00;99.90
8832;DHT22;4452;50.756;4.472;2022-10-26T17:48:26;17.00;99.90
8832;DHT22;4452;50.756;4.472;2022-10-26T17:50:52;17.00;99.90
8832;DHT22;4452;50.756;4.472;2022-10-26T17:53:18;17.00;99.90
8832;DHT22;4452;50.756;4.472;2022-10-26T17:55:43;17.00;99.90
8832;DHT22;4452;50.756;4.472;2022-10-26T17:58:09;17.00;99.90
8832;DHT22;4452;50.756;4.472;2022-10-26T18:00:34;16.90;99.90
8832;DHT22;4452;50.756;4.472;2022-10-26T18:03:00;16.90;99.90
8832;DHT22;4452;50.756;4.472;2022-10-26T18:05:26;16.80;99.90
8832;DHT22;4452;50.756;4.472;2022-10-26T18:07:56;16.80;99.90
8832;DHT22;4452;50.756;4.472;2022-10-26T18:10:21;16.70;99.90
8832;DHT22;4452;50.756;4.472;2022-10-26T18:12:48;16.60;99.90
8832;DHT22;4452;50.756;4.472;2022-10-26T18:15:16;16.50;99.90
8832;DHT22;4452;50.756;4.472;2022-10-26T18:17:43;16.50;99.90
8832;DHT22;4452;50.756;4.472;2022-10-26T18:20:10;16.40;99.90
8832;DHT22;4452;50.756;4.472;2022-10-26T18:22:36;16.40;99.90
8832;DHT22;4452;50.756;4.472;2022-10-26T18:25:04;16.40;99.90
8832;DHT22;4452;50.756;4.472;2022-10-26T18:27:30;16.40;99.90
8832;DHT22;4452;50.756;4.472;2022-10-26T18:29:56;16.50;99.90
8832;DHT22;4452;50.756;4.472;2022-10-26T18:32:22;16.50;99.90
8832;DHT22;4452;50.756;4.472;2022-10-26T18:34:47;16.40;99.90
8832;DHT22;4452;50.756;4.472;2022-10-26T18:37:13;16.30;99.90
8832;DHT22;4452;50.756;4.472;2022-10-26T18:39:39;16.20;99.90